sensor_id;sensor_type;location;lat;lon;timestamp;P1;durP1;ratioP1;P2;durP2;ratioP2
54745;SDS011;40640;48.130;11.356;2023-07-20T00:01:21;6.07;;;2.08;;
54745;SDS011;40640;48.130;11.356;2023-07-20T00:05:41;4.90;;;2.03;;
54745;SDS011;40640;48.130;11.356;2023-07-20T00:09:44;9.13;;;2.88;;
54745;SDS011;40640;48.130;11.356;2023-07-20T00:13:49;6.78;;;2.35;;
54745;SDS011;40640;48.130;11.356;2023-07-20T00:17:52;4.35;;;2.13;;
54745;SDS011;40640;48.130;11.356;2023-07-20T00:21:55;5.13;;;2.15;;
54745;SDS011;40640;48.130;11.356;2023-07-20T00:25:58;8.45;;;2.20;;
54745;SDS011;40640;48.130;11.356;2023-07-20T00:30:03;8.20;;;2.40;;
54745;SDS011;40640;48.130;11.356;2023-07-20T00:34:06;4.13;;;2.50;;
54745;SDS011;40640;48.130;11.356;2023-07-20T00:38:09;3.58;;;2.38;;
54745;SDS011;40640;48.130;11.356;2023-07-20T00:42:12;14.40;;;2.25;;
54745;SDS011;40640;48.130;11.356;2023-07-20T00:46:17;7.90;;;2.90;;
54745;SDS011;40640;48.130;11.356;2023-07-20T00:50:20;5.65;;;2.60;;
54745;SDS011;40640;48.130;11.356;2023-07-20T00:54:23;8.07;;;2.38;;
54745;SDS011;40640;48.130;11.356;2023-07-20T00:58:26;4.70;;;2.05;;
54745;SDS011;40640;48.130;11.356;2023-07-20T01:02:31;4.55;;;1.90;;
54745;SDS011;40640;48.130;11.356;2023-07-20T01:06:36;5.32;;;2.63;;
54745;SDS011;40640;48.130;11.356;2023-07-20T01:10:50;6.63;;;2.28;;
54745;SDS011;40640;48.130;11.356;2023-07-20T01:14:56;5.90;;;2.30;;
54745;SDS011;40640;48.130;11.356;2023-07-20T01:19:00;5.72;;;2.03;;
54745;SDS011;40640;48.130;11.356;2023-07-20T01:23:15;10.38;;;2.22;;
54745;SDS011;40640;48.130;11.356;2023-07-20T01:27:47;6.68;;;2.28;;
54745;SDS011;40640;48.130;11.356;2023-07-20T01:32:13;6.57;;;2.00;;
54745;SDS011;40640;48.130;11.356;2023-07-20T01:36:19;4.53;;;2.08;;
54745;SDS011;40640;48.130;11.356;2023-07-20T01:40:26;4.75;;;2.15;;
54745;SDS011;40640;48.130;11.356;2023-07-20T01:44:29;4.97;;;2.40;;
54745;SDS011;40640;48.130;11.356;2023-07-20T01:48:34;2.65;;;1.80;;
54745;SDS011;40640;48.130;11.356;2023-07-20T01:52:36;4.05;;;2.05;;
54745;SDS011;40640;48.130;11.356;2023-07-20T01:56:39;6.90;;;2.03;;
54745;SDS011;40640;48.130;11.356;2023-07-20T02:00:42;2.72;;;1.90;;
54745;SDS011;40640;48.130;11.356;2023-07-20T02:04:47;11.05;;;2.30;;
54745;SDS011;40640;48.130;11.356;2023-07-20T02:08:49;9.35;;;2.13;;
54745;SDS011;40640;48.130;11.356;2023-07-20T02:12:52;6.05;;;2.00;;
54745;SDS011;40640;48.130;11.356;2023-07-20T02:16:55;5.13;;;1.70;;
54745;SDS011;40640;48.130;11.356;2023-07-20T02:21:03;7.60;;;2.05;;
54745;SDS011;40640;48.130;11.356;2023-07-20T02:25:06;6.18;;;1.63;;
54745;SDS011;40640;48.130;11.356;2023-07-20T02:29:10;6.68;;;2.28;;
54745;SDS011;40640;48.130;11.356;2023-07-20T02:33:13;5.35;;;1.77;;
54745;SDS011;40640;48.130;11.356;2023-07-20T02:37:17;2.75;;;1.73;;
54745;SDS011;40640;48.130;11.356;2023-07-20T02:41:21;3.28;;;1.65;;
54745;SDS011;40640;48.130;11.356;2023-07-20T02:45:24;2.40;;;1.52;;
54745;SDS011;40640;48.130;11.356;2023-07-20T02:49:27;3.53;;;1.60;;
54745;SDS011;40640;48.130;11.356;2023-07-20T02:53:31;7.55;;;2.25;;
54745;SDS011;40640;48.130;11.356;2023-07-20T02:57:34;7.50;;;1.85;;
54745;SDS011;40640;48.130;11.356;2023-07-20T03:01:37;3.20;;;1.70;;
54745;SDS011;40640;48.130;11.356;2023-07-20T03:05:40;3.40;;;1.70;;
54745;SDS011;40640;48.130;11.356;2023-07-20T03:09:44;3.95;;;1.75;;
54745;SDS011;40640;48.130;11.356;2023-07-20T03:13:47;4.32;;;1.80;;
54745;SDS011;40640;48.130;11.356;2023-07-20T03:17:51;8.57;;;2.13;;
54745;SDS011;40640;48.130;11.356;2023-07-20T03:21:54;9.55;;;2.30;;
54745;SDS011;40640;48.130;11.356;2023-07-20T03:25:58;9.32;;;2.03;;
54745;SDS011;40640;48.130;11.356;2023-07-20T03:30:01;6.32;;;1.80;;
54745;SDS011;40640;48.130;11.356;2023-07-20T03:34:05;5.43;;;2.00;;
54745;SDS011;40640;48.130;11.356;2023-07-20T03:38:10;4.88;;;1.90;;
54745;SDS011;40640;48.130;11.356;2023-07-20T03:42:15;11.98;;;2.25;;
54745;SDS011;40640;48.130;11.356;2023-07-20T03:46:18;10.93;;;2.30;;
54745;SDS011;40640;48.130;11.356;2023-07-20T03:50:21;4.63;;;1.80;;
54745;SDS011;40640;48.130;11.356;2023-07-20T03:54:24;3.75;;;1.77;;
54745;SDS011;40640;48.130;11.356;2023-07-20T03:58:28;7.90;;;2.25;;
54745;SDS011;40640;48.130;11.356;2023-07-20T04:02:32;5.87;;;2.30;;
54745;SDS011;40640;48.130;11.356;2023-07-20T04:06:35;5.28;;;2.35;;
54745;SDS011;40640;48.130;11.356;2023-07-20T04:10:39;6.68;;;2.45;;
54745;SDS011;40640;48.130;11.356;2023-07-20T04:14:43;7.55;;;2.30;;
54745;SDS011;40640;48.130;11.356;2023-07-20T04:18:46;7.13;;;2.05;;
54745;SDS011;40640;48.130;11.356;2023-07-20T04:22:49;11.88;;;2.47;;
54745;SDS011;40640;48.130;11.356;2023-07-20T04:26:53;4.07;;;2.58;;
54745;SDS011;40640;48.130;11.356;2023-07-20T04:31:08;7.18;;;2.05;;
54745;SDS011;40640;48.130;11.356;2023-07-20T04:35:16;4.22;;;2.05;;
54745;SDS011;40640;48.130;11.356;2023-07-20T04:39:22;3.30;;;2.30;;
54745;SDS011;40640;48.130;11.356;2023-07-20T04:43:37;10.38;;;2.10;;
54745;SDS011;40640;48.130;11.356;2023-07-20T04:47:46;8.85;;;2.17;;
54745;SDS011;40640;48.130;11.356;2023-07-20T04:51:49;6.30;;;2.10;;
54745;SDS011;40640;48.130;11.356;2023-07-20T04:55:52;7.68;;;2.30;;
54745;SDS011;40640;48.130;11.356;2023-07-20T04:59:57;8.07;;;2.40;;
54745;SDS011;40640;48.130;11.356;2023-07-20T05:04:02;5.40;;;2.20;;
54745;SDS011;40640;48.130;11.356;2023-07-20T05:08:05;10.13;;;2.08;;
54745;SDS011;40640;48.130;11.356;2023-07-20T05:12:08;5.30;;;2.10;;
54745;SDS011;40640;48.130;11.356;2023-07-20T05:16:13;8.90;;;2.00;;
54745;SDS011;40640;48.130;11.356;2023-07-20T05:20:18;5.13;;;2.17;;
54745;SDS011;40640;48.130;11.356;2023-07-20T05:24:21;5.22;;;2.13;;
54745;SDS011;40640;48.130;11.356;2023-07-20T05:28:24;3.90;;;2.00;;
54745;SDS011;40640;48.130;11.356;2023-07-20T05:32:28;4.97;;;2.40;;
54745;SDS011;40640;48.130;11.356;2023-07-20T05:36:33;6.50;;;2.35;;
54745;SDS011;40640;48.130;11.356;2023-07-20T05:40:37;4.75;;;1.95;;
54745;SDS011;40640;48.130;11.356;2023-07-20T05:44:40;3.55;;;2.00;;
54745;SDS011;40640;48.130;11.356;2023-07-20T05:48:43;13.45;;;2.53;;
54745;SDS011;40640;48.130;11.356;2023-07-20T05:52:47;4.97;;;2.20;;
54745;SDS011;40640;48.130;11.356;2023-07-20T05:56:50;3.70;;;2.20;;
54745;SDS011;40640;48.130;11.356;2023-07-20T06:00:53;3.60;;;2.45;;
54745;SDS011;40640;48.130;11.356;2023-07-20T06:04:56;8.40;;;2.08;;
54745;SDS011;40640;48.130;11.356;2023-07-20T06:09:01;4.10;;;2.33;;
54745;SDS011;40640;48.130;11.356;2023-07-20T06:13:05;3.67;;;2.10;;
54745;SDS011;40640;48.130;11.356;2023-07-20T06:17:08;4.32;;;1.95;;
54745;SDS011;40640;48.130;11.356;2023-07-20T06:21:11;5.07;;;2.33;;
54745;SDS011;40640;48.130;11.356;2023-07-20T06:25:15;4.18;;;2.00;;
54745;SDS011;40640;48.130;11.356;2023-07-20T06:29:18;2.65;;;2.00;;
54745;SDS011;40640;48.130;11.356;2023-07-20T06:33:21;4.15;;;1.98;;
54745;SDS011;40640;48.130;11.356;2023-07-20T06:37:24;7.10;;;2.50;;
54745;SDS011;40640;48.130;11.356;2023-07-20T06:41:28;5.82;;;1.92;;
54745;SDS011;40640;48.130;11.356;2023-07-20T06:45:34;3.63;;;2.30;;
54745;SDS011;40640;48.130;11.356;2023-07-20T06:49:37;6.20;;;2.03;;
54745;SDS011;40640;48.130;11.356;2023-07-20T06:53:40;6.63;;;2.25;;
54745;SDS011;40640;48.130;11.356;2023-07-20T06:57:44;7.45;;;2.08;;
54745;SDS011;40640;48.130;11.356;2023-07-20T07:01:49;5.15;;;2.10;;
54745;SDS011;40640;48.130;11.356;2023-07-20T07:05:54;5.07;;;2.00;;
54745;SDS011;40640;48.130;11.356;2023-07-20T07:09:58;4.10;;;1.98;;
54745;SDS011;40640;48.130;11.356;2023-07-20T07:14:03;3.70;;;2.15;;
54745;SDS011;40640;48.130;11.356;2023-07-20T07:18:06;3.40;;;2.20;;
54745;SDS011;40640;48.130;11.356;2023-07-20T07:22:09;3.15;;;2.22;;
54745;SDS011;40640;48.130;11.356;2023-07-20T07:26:13;4.78;;;2.45;;
54745;SDS011;40640;48.130;11.356;2023-07-20T07:30:17;6.38;;;2.20;;
54745;SDS011;40640;48.130;11.356;2023-07-20T07:34:20;7.70;;;2.30;;
54745;SDS011;40640;48.130;11.356;2023-07-20T07:38:23;3.83;;;2.05;;
54745;SDS011;40640;48.130;11.356;2023-07-20T07:42:31;3.65;;;2.10;;
54745;SDS011;40640;48.130;11.356;2023-07-20T07:46:36;9.75;;;2.20;;
54745;SDS011;40640;48.130;11.356;2023-07-20T07:50:39;3.83;;;1.98;;
54745;SDS011;40640;48.130;11.356;2023-07-20T07:54:42;3.33;;;2.00;;
54745;SDS011;40640;48.130;11.356;2023-07-20T07:58:45;5.57;;;2.22;;
54745;SDS011;40640;48.130;11.356;2023-07-20T08:02:50;2.65;;;1.55;;
54745;SDS011;40640;48.130;11.356;2023-07-20T08:06:53;7.95;;;2.22;;
54745;SDS011;40640;48.130;11.356;2023-07-20T08:10:57;4.65;;;2.00;;
54745;SDS011;40640;48.130;11.356;2023-07-20T08:15:01;4.55;;;1.83;;
54745;SDS011;40640;48.130;11.356;2023-07-20T08:19:05;3.78;;;1.90;;
54745;SDS011;40640;48.130;11.356;2023-07-20T08:23:08;2.60;;;1.70;;
54745;SDS011;40640;48.130;11.356;2023-07-20T08:27:11;4.55;;;1.52;;
54745;SDS011;40640;48.130;11.356;2023-07-20T08:31:14;4.35;;;1.90;;
54745;SDS011;40640;48.130;11.356;2023-07-20T08:35:19;4.35;;;2.50;;
54745;SDS011;40640;48.130;11.356;2023-07-20T08:39:23;5.28;;;1.92;;
54745;SDS011;40640;48.130;11.356;2023-07-20T08:43:27;8.38;;;2.25;;
54745;SDS011;40640;48.130;11.356;2023-07-20T08:47:30;11.32;;;2.20;;
54745;SDS011;40640;48.130;11.356;2023-07-20T08:51:34;7.07;;;2.28;;
54745;SDS011;40640;48.130;11.356;2023-07-20T08:55:38;2.80;;;2.20;;
54745;SDS011;40640;48.130;11.356;2023-07-20T08:59:42;6.57;;;2.45;;
54745;SDS011;40640;48.130;11.356;2023-07-20T09:03:46;4.05;;;2.08;;
54745;SDS011;40640;48.130;11.356;2023-07-20T09:07:52;7.28;;;2.10;;
54745;SDS011;40640;48.130;11.356;2023-07-20T09:11:55;3.65;;;2.20;;
54745;SDS011;40640;48.130;11.356;2023-07-20T09:15:58;6.05;;;2.30;;
54745;SDS011;40640;48.130;11.356;2023-07-20T09:20:01;4.00;;;2.47;;
54745;SDS011;40640;48.130;11.356;2023-07-20T09:24:10;7.32;;;2.40;;
54745;SDS011;40640;48.130;11.356;2023-07-20T09:28:13;6.07;;;2.20;;
54745;SDS011;40640;48.130;11.356;2023-07-20T09:32:17;4.75;;;1.90;;
54745;SDS011;40640;48.130;11.356;2023-07-20T09:36:26;3.88;;;1.95;;
54745;SDS011;40640;48.130;11.356;2023-07-20T09:40:37;3.25;;;1.75;;
54745;SDS011;40640;48.130;11.356;2023-07-20T09:44:43;4.57;;;2.05;;
54745;SDS011;40640;48.130;11.356;2023-07-20T09:48:53;4.07;;;1.85;;
54745;SDS011;40640;48.130;11.356;2023-07-20T09:52:59;4.95;;;2.42;;
54745;SDS011;40640;48.130;11.356;2023-07-20T09:57:08;5.18;;;2.65;;
54745;SDS011;40640;48.130;11.356;2023-07-20T10:01:13;4.55;;;2.10;;
54745;SDS011;40640;48.130;11.356;2023-07-20T10:05:23;6.22;;;2.25;;
54745;SDS011;40640;48.130;11.356;2023-07-20T10:09:28;4.72;;;2.67;;
54745;SDS011;40640;48.130;11.356;2023-07-20T10:13:36;3.78;;;1.85;;
54745;SDS011;40640;48.130;11.356;2023-07-20T10:17:44;6.53;;;2.00;;
54745;SDS011;40640;48.130;11.356;2023-07-20T10:21:55;3.10;;;1.98;;
54745;SDS011;40640;48.130;11.356;2023-07-20T10:26:00;5.93;;;2.10;;
54745;SDS011;40640;48.130;11.356;2023-07-20T10:30:05;4.53;;;2.22;;
54745;SDS011;40640;48.130;11.356;2023-07-20T10:34:09;3.35;;;1.80;;
54745;SDS011;40640;48.130;11.356;2023-07-20T10:38:14;5.75;;;2.22;;
54745;SDS011;40640;48.130;11.356;2023-07-20T10:42:17;6.03;;;1.70;;
54745;SDS011;40640;48.130;11.356;2023-07-20T10:46:41;2.90;;;1.87;;
54745;SDS011;40640;48.130;11.356;2023-07-20T10:55:14;6.55;;;1.88;;
54745;SDS011;40640;48.130;11.356;2023-07-20T10:59:18;4.47;;;1.77;;
54745;SDS011;40640;48.130;11.356;2023-07-20T11:03:30;3.00;;;1.60;;
54745;SDS011;40640;48.130;11.356;2023-07-20T11:07:38;4.68;;;1.80;;
54745;SDS011;40640;48.130;11.356;2023-07-20T11:11:43;3.38;;;2.05;;
54745;SDS011;40640;48.130;11.356;2023-07-20T11:15:47;4.35;;;1.40;;
54745;SDS011;40640;48.130;11.356;2023-07-20T11:20:05;3.42;;;1.90;;
54745;SDS011;40640;48.130;11.356;2023-07-20T11:24:12;5.30;;;2.00;;
54745;SDS011;40640;48.130;11.356;2023-07-20T11:28:15;4.90;;;1.70;;
54745;SDS011;40640;48.130;11.356;2023-07-20T11:32:20;7.75;;;1.90;;
54745;SDS011;40640;48.130;11.356;2023-07-20T11:36:25;5.05;;;1.88;;
54745;SDS011;40640;48.130;11.356;2023-07-20T11:40:30;6.45;;;1.80;;
54745;SDS011;40640;48.130;11.356;2023-07-20T11:44:33;8.18;;;1.90;;
54745;SDS011;40640;48.130;11.356;2023-07-20T11:48:36;3.92;;;1.60;;
54745;SDS011;40640;48.130;11.356;2023-07-20T11:52:42;3.42;;;1.70;;
54745;SDS011;40640;48.130;11.356;2023-07-20T11:56:45;2.92;;;1.70;;
54745;SDS011;40640;48.130;11.356;2023-07-20T12:00:50;4.70;;;1.90;;
54745;SDS011;40640;48.130;11.356;2023-07-20T12:04:53;4.50;;;1.77;;
54745;SDS011;40640;48.130;11.356;2023-07-20T12:08:58;8.63;;;1.73;;
54745;SDS011;40640;48.130;11.356;2023-07-20T12:13:02;2.10;;;1.50;;
54745;SDS011;40640;48.130;11.356;2023-07-20T12:17:07;3.90;;;1.70;;
54745;SDS011;40640;48.130;11.356;2023-07-20T12:21:11;2.72;;;2.10;;
54745;SDS011;40640;48.130;11.356;2023-07-20T12:29:20;4.28;;;2.20;;
54745;SDS011;40640;48.130;11.356;2023-07-20T12:33:23;3.03;;;1.90;;
54745;SDS011;40640;48.130;11.356;2023-07-20T12:37:26;2.03;;;1.67;;
54745;SDS011;40640;48.130;11.356;2023-07-20T12:41:30;3.28;;;2.22;;
54745;SDS011;40640;48.130;11.356;2023-07-20T12:49:36;2.47;;;1.60;;
54745;SDS011;40640;48.130;11.356;2023-07-20T12:53:38;8.57;;;1.80;;
54745;SDS011;40640;48.130;11.356;2023-07-20T12:57:43;3.05;;;1.77;;
54745;SDS011;40640;48.130;11.356;2023-07-20T13:01:46;4.30;;;1.83;;
54745;SDS011;40640;48.130;11.356;2023-07-20T13:05:49;3.00;;;1.80;;
54745;SDS011;40640;48.130;11.356;2023-07-20T13:09:55;3.97;;;1.83;;
54745;SDS011;40640;48.130;11.356;2023-07-20T13:13:59;4.40;;;1.45;;
54745;SDS011;40640;48.130;11.356;2023-07-20T13:18:02;8.82;;;1.80;;
54745;SDS011;40640;48.130;11.356;2023-07-20T13:22:05;9.50;;;1.60;;
54745;SDS011;40640;48.130;11.356;2023-07-20T13:26:08;3.00;;;1.60;;
54745;SDS011;40640;48.130;11.356;2023-07-20T13:30:13;3.20;;;1.73;;
54745;SDS011;40640;48.130;11.356;2023-07-20T13:34:18;2.85;;;1.52;;
54745;SDS011;40640;48.130;11.356;2023-07-20T13:38:21;2.30;;;1.70;;
54745;SDS011;40640;48.130;11.356;2023-07-20T13:42:24;3.47;;;1.52;;
54745;SDS011;40640;48.130;11.356;2023-07-20T13:46:28;1.75;;;1.50;;
54745;SDS011;40640;48.130;11.356;2023-07-20T13:50:34;2.15;;;1.55;;
54745;SDS011;40640;48.130;11.356;2023-07-20T13:54:39;5.20;;;1.80;;
54745;SDS011;40640;48.130;11.356;2023-07-20T13:58:48;6.40;;;2.00;;
54745;SDS011;40640;48.130;11.356;2023-07-20T14:02:52;2.10;;;1.48;;
54745;SDS011;40640;48.130;11.356;2023-07-20T14:06:58;5.18;;;1.60;;
54745;SDS011;40640;48.130;11.356;2023-07-20T14:11:01;7.65;;;1.75;;
54745;SDS011;40640;48.130;11.356;2023-07-20T14:15:07;2.70;;;1.60;;
54745;SDS011;40640;48.130;11.356;2023-07-20T14:19:14;2.72;;;1.30;;
54745;SDS011;40640;48.130;11.356;2023-07-20T14:23:17;5.28;;;1.92;;
54745;SDS011;40640;48.130;11.356;2023-07-20T14:27:19;3.58;;;1.70;;
54745;SDS011;40640;48.130;11.356;2023-07-20T14:31:22;2.75;;;1.60;;
54745;SDS011;40640;48.130;11.356;2023-07-20T14:35:28;6.60;;;2.10;;
54745;SDS011;40640;48.130;11.356;2023-07-20T14:39:31;9.90;;;2.20;;
54745;SDS011;40640;48.130;11.356;2023-07-20T14:43:34;2.40;;;1.90;;
54745;SDS011;40640;48.130;11.356;2023-07-20T14:47:36;3.13;;;1.48;;
54745;SDS011;40640;48.130;11.356;2023-07-20T14:51:41;3.00;;;2.00;;
54745;SDS011;40640;48.130;11.356;2023-07-20T14:55:48;2.15;;;1.80;;
54745;SDS011;40640;48.130;11.356;2023-07-20T14:59:50;3.58;;;2.00;;
54745;SDS011;40640;48.130;11.356;2023-07-20T15:03:53;3.28;;;1.85;;
54745;SDS011;40640;48.130;11.356;2023-07-20T15:08:01;2.97;;;1.70;;
54745;SDS011;40640;48.130;11.356;2023-07-20T15:12:04;7.43;;;2.08;;
54745;SDS011;40640;48.130;11.356;2023-07-20T15:16:08;3.67;;;1.90;;
54745;SDS011;40640;48.130;11.356;2023-07-20T15:20:13;4.07;;;2.22;;
54745;SDS011;40640;48.130;11.356;2023-07-20T15:24:17;3.33;;;1.83;;
54745;SDS011;40640;48.130;11.356;2023-07-20T15:28:20;4.50;;;2.00;;
54745;SDS011;40640;48.130;11.356;2023-07-20T15:32:24;6.60;;;2.08;;
54745;SDS011;40640;48.130;11.356;2023-07-20T15:36:27;9.40;;;2.00;;
54745;SDS011;40640;48.130;11.356;2023-07-20T15:40:32;3.33;;;1.90;;
54745;SDS011;40640;48.130;11.356;2023-07-20T15:44:35;6.65;;;1.90;;
54745;SDS011;40640;48.130;11.356;2023-07-20T15:48:38;4.15;;;1.67;;
54745;SDS011;40640;48.130;11.356;2023-07-20T15:52:43;10.50;;;1.75;;
54745;SDS011;40640;48.130;11.356;2023-07-20T15:56:47;4.38;;;2.08;;
54745;SDS011;40640;48.130;11.356;2023-07-20T16:00:52;2.78;;;1.80;;
54745;SDS011;40640;48.130;11.356;2023-07-20T16:04:57;4.60;;;2.50;;
54745;SDS011;40640;48.130;11.356;2023-07-20T16:09:14;7.18;;;1.90;;
54745;SDS011;40640;48.130;11.356;2023-07-20T16:13:19;3.92;;;1.77;;
54745;SDS011;40640;48.130;11.356;2023-07-20T16:17:22;5.40;;;1.88;;
54745;SDS011;40640;48.130;11.356;2023-07-20T16:21:28;4.35;;;1.90;;
54745;SDS011;40640;48.130;11.356;2023-07-20T16:25:33;2.60;;;1.73;;
54745;SDS011;40640;48.130;11.356;2023-07-20T16:29:37;3.90;;;1.60;;
54745;SDS011;40640;48.130;11.356;2023-07-20T16:33:44;4.80;;;1.95;;
54745;SDS011;40640;48.130;11.356;2023-07-20T16:37:47;3.33;;;1.63;;
54745;SDS011;40640;48.130;11.356;2023-07-20T16:42:11;3.90;;;1.98;;
54745;SDS011;40640;48.130;11.356;2023-07-20T16:46:16;5.60;;;1.98;;
54745;SDS011;40640;48.130;11.356;2023-07-20T16:50:22;4.13;;;2.00;;
54745;SDS011;40640;48.130;11.356;2023-07-20T16:54:25;6.35;;;2.05;;
54745;SDS011;40640;48.130;11.356;2023-07-20T16:58:28;4.38;;;2.05;;
54745;SDS011;40640;48.130;11.356;2023-07-20T17:02:32;5.22;;;1.85;;
54745;SDS011;40640;48.130;11.356;2023-07-20T17:06:35;15.73;;;2.50;;
54745;SDS011;40640;48.130;11.356;2023-07-20T17:10:39;8.07;;;1.95;;
54745;SDS011;40640;48.130;11.356;2023-07-20T17:14:41;3.00;;;2.03;;
54745;SDS011;40640;48.130;11.356;2023-07-20T17:18:46;10.60;;;2.17;;
54745;SDS011;40640;48.130;11.356;2023-07-20T17:22:48;10.88;;;2.17;;
54745;SDS011;40640;48.130;11.356;2023-07-20T17:26:51;15.38;;;3.47;;
54745;SDS011;40640;48.130;11.356;2023-07-20T17:31:15;12.55;;;2.85;;
54745;SDS011;40640;48.130;11.356;2023-07-20T17:35:20;6.75;;;2.00;;
54745;SDS011;40640;48.130;11.356;2023-07-20T17:39:23;2.38;;;1.73;;
54745;SDS011;40640;48.130;11.356;2023-07-20T17:43:46;2.55;;;1.80;;
54745;SDS011;40640;48.130;11.356;2023-07-20T17:47:49;10.15;;;2.50;;
54745;SDS011;40640;48.130;11.356;2023-07-20T17:51:53;6.85;;;1.92;;
54745;SDS011;40640;48.130;11.356;2023-07-20T17:55:57;4.77;;;2.57;;
54745;SDS011;40640;48.130;11.356;2023-07-20T18:00:00;4.63;;;1.77;;
54745;SDS011;40640;48.130;11.356;2023-07-20T18:04:08;4.47;;;2.13;;
54745;SDS011;40640;48.130;11.356;2023-07-20T18:08:13;4.65;;;2.10;;
54745;SDS011;40640;48.130;11.356;2023-07-20T18:12:16;7.13;;;2.15;;
54745;SDS011;40640;48.130;11.356;2023-07-20T18:16:19;8.73;;;2.47;;
54745;SDS011;40640;48.130;11.356;2023-07-20T18:20:22;4.65;;;2.13;;
54745;SDS011;40640;48.130;11.356;2023-07-20T18:24:26;4.18;;;2.30;;
54745;SDS011;40640;48.130;11.356;2023-07-20T18:28:29;11.73;;;2.22;;
54745;SDS011;40640;48.130;11.356;2023-07-20T18:32:32;5.05;;;2.35;;
54745;SDS011;40640;48.130;11.356;2023-07-20T18:36:35;6.32;;;2.17;;
54745;SDS011;40640;48.130;11.356;2023-07-20T18:40:41;3.50;;;2.00;;
54745;SDS011;40640;48.130;11.356;2023-07-20T18:44:43;8.02;;;2.33;;
54745;SDS011;40640;48.130;11.356;2023-07-20T18:48:46;5.05;;;2.13;;
54745;SDS011;40640;48.130;11.356;2023-07-20T18:52:49;6.97;;;2.05;;
54745;SDS011;40640;48.130;11.356;2023-07-20T18:56:54;5.07;;;2.30;;
54745;SDS011;40640;48.130;11.356;2023-07-20T19:00:58;4.40;;;2.10;;
54745;SDS011;40640;48.130;11.356;2023-07-20T19:05:01;5.07;;;2.50;;
54745;SDS011;40640;48.130;11.356;2023-07-20T19:09:04;19.70;;;3.10;;
54745;SDS011;40640;48.130;11.356;2023-07-20T19:13:08;14.95;;;3.10;;
54745;SDS011;40640;48.130;11.356;2023-07-20T19:17:11;19.13;;;3.38;;
54745;SDS011;40640;48.130;11.356;2023-07-20T19:21:14;4.05;;;2.33;;
54745;SDS011;40640;48.130;11.356;2023-07-20T19:25:18;8.77;;;2.75;;
54745;SDS011;40640;48.130;11.356;2023-07-20T19:29:22;4.80;;;2.67;;
54745;SDS011;40640;48.130;11.356;2023-07-20T19:33:25;13.60;;;3.28;;
54745;SDS011;40640;48.130;11.356;2023-07-20T19:37:28;12.10;;;3.22;;
54745;SDS011;40640;48.130;11.356;2023-07-20T19:41:31;14.73;;;3.05;;
54745;SDS011;40640;48.130;11.356;2023-07-20T19:45:35;8.38;;;3.42;;
54745;SDS011;40640;48.130;11.356;2023-07-20T19:49:38;11.48;;;3.15;;
54745;SDS011;40640;48.130;11.356;2023-07-20T19:53:41;13.65;;;3.38;;
54745;SDS011;40640;48.130;11.356;2023-07-20T19:58:04;13.13;;;3.03;;
54745;SDS011;40640;48.130;11.356;2023-07-20T20:02:08;7.55;;;2.47;;
54745;SDS011;40640;48.130;11.356;2023-07-20T20:06:11;10.05;;;3.05;;
54745;SDS011;40640;48.130;11.356;2023-07-20T20:10:14;16.13;;;3.20;;
54745;SDS011;40640;48.130;11.356;2023-07-20T20:14:17;6.32;;;2.30;;
54745;SDS011;40640;48.130;11.356;2023-07-20T20:18:22;5.32;;;2.50;;
54745;SDS011;40640;48.130;11.356;2023-07-20T20:22:26;8.70;;;3.20;;
54745;SDS011;40640;48.130;11.356;2023-07-20T20:26:29;7.18;;;2.65;;
54745;SDS011;40640;48.130;11.356;2023-07-20T20:30:32;12.95;;;3.00;;
54745;SDS011;40640;48.130;11.356;2023-07-20T20:34:36;11.45;;;2.75;;
54745;SDS011;40640;48.130;11.356;2023-07-20T20:38:39;10.15;;;3.10;;
54745;SDS011;40640;48.130;11.356;2023-07-20T20:42:42;7.45;;;3.08;;
54745;SDS011;40640;48.130;11.356;2023-07-20T20:46:44;7.90;;;2.88;;
54745;SDS011;40640;48.130;11.356;2023-07-20T20:50:49;16.67;;;2.72;;
54745;SDS011;40640;48.130;11.356;2023-07-20T20:54:52;10.43;;;3.47;;
54745;SDS011;40640;48.130;11.356;2023-07-20T20:58:55;8.88;;;3.17;;
54745;SDS011;40640;48.130;11.356;2023-07-20T21:02:57;9.55;;;3.10;;
54745;SDS011;40640;48.130;11.356;2023-07-20T21:07:02;10.07;;;4.55;;
54745;SDS011;40640;48.130;11.356;2023-07-20T21:11:06;7.93;;;3.00;;
54745;SDS011;40640;48.130;11.356;2023-07-20T21:15:09;10.13;;;3.28;;
54745;SDS011;40640;48.130;11.356;2023-07-20T21:19:12;14.50;;;3.85;;
54745;SDS011;40640;48.130;11.356;2023-07-20T21:23:16;5.53;;;3.20;;
54745;SDS011;40640;48.130;11.356;2023-07-20T21:27:21;13.85;;;2.97;;
54745;SDS011;40640;48.130;11.356;2023-07-20T21:31:24;5.10;;;2.85;;
54745;SDS011;40640;48.130;11.356;2023-07-20T21:35:27;11.68;;;3.00;;
54745;SDS011;40640;48.130;11.356;2023-07-20T21:39:31;5.03;;;2.67;;
54745;SDS011;40640;48.130;11.356;2023-07-20T21:43:34;8.02;;;2.85;;
54745;SDS011;40640;48.130;11.356;2023-07-20T21:47:37;6.47;;;2.60;;
54745;SDS011;40640;48.130;11.356;2023-07-20T21:51:40;7.38;;;2.60;;
54745;SDS011;40640;48.130;11.356;2023-07-20T21:55:44;6.13;;;2.60;;
54745;SDS011;40640;48.130;11.356;2023-07-20T21:59:50;6.15;;;2.97;;
54745;SDS011;40640;48.130;11.356;2023-07-20T22:03:53;5.68;;;3.03;;
54745;SDS011;40640;48.130;11.356;2023-07-20T22:07:56;10.15;;;3.15;;
54745;SDS011;40640;48.130;11.356;2023-07-20T22:12:02;9.07;;;2.95;;
54745;SDS011;40640;48.130;11.356;2023-07-20T22:16:05;16.38;;;3.50;;
54745;SDS011;40640;48.130;11.356;2023-07-20T22:20:09;11.07;;;2.83;;
54745;SDS011;40640;48.130;11.356;2023-07-20T22:24:14;8.38;;;3.00;;
54745;SDS011;40640;48.130;11.356;2023-07-20T22:28:19;9.68;;;3.08;;
54745;SDS011;40640;48.130;11.356;2023-07-20T22:32:22;6.18;;;2.70;;
54745;SDS011;40640;48.130;11.356;2023-07-20T22:36:25;3.88;;;2.65;;
54745;SDS011;40640;48.130;11.356;2023-07-20T22:40:28;7.15;;;3.13;;
54745;SDS011;40640;48.130;11.356;2023-07-20T22:44:35;6.32;;;2.95;;
54745;SDS011;40640;48.130;11.356;2023-07-20T22:48:38;7.63;;;2.70;;
54745;SDS011;40640;48.130;11.356;2023-07-20T22:52:41;11.15;;;3.08;;
54745;SDS011;40640;48.130;11.356;2023-07-20T22:56:44;7.57;;;3.00;;
54745;SDS011;40640;48.130;11.356;2023-07-20T23:00:49;5.63;;;2.95;;
54745;SDS011;40640;48.130;11.356;2023-07-20T23:04:52;11.15;;;3.05;;
54745;SDS011;40640;48.130;11.356;2023-07-20T23:08:56;5.75;;;3.20;;
54745;SDS011;40640;48.130;11.356;2023-07-20T23:13:01;8.30;;;3.00;;
54745;SDS011;40640;48.130;11.356;2023-07-20T23:17:06;6.13;;;3.08;;
54745;SDS011;40640;48.130;11.356;2023-07-20T23:21:12;4.97;;;2.88;;
54745;SDS011;40640;48.130;11.356;2023-07-20T23:25:16;5.53;;;2.60;;
54745;SDS011;40640;48.130;11.356;2023-07-20T23:29:20;6.78;;;3.10;;
54745;SDS011;40640;48.130;11.356;2023-07-20T23:33:25;5.55;;;2.78;;
54745;SDS011;40640;48.130;11.356;2023-07-20T23:37:28;7.15;;;3.00;;
54745;SDS011;40640;48.130;11.356;2023-07-20T23:41:31;4.78;;;2.72;;
54745;SDS011;40640;48.130;11.356;2023-07-20T23:45:33;7.90;;;2.85;;
54745;SDS011;40640;48.130;11.356;2023-07-20T23:49:39;6.95;;;3.63;;
54745;SDS011;40640;48.130;11.356;2023-07-20T23:53:42;11.95;;;3.85;;
54745;SDS011;40640;48.130;11.356;2023-07-20T23:57:46;6.93;;;3.42;;
